Terminal Aerodrome Forecast
Issued by NWS Northern Indiana

Home | Current Version | Previous Version | Text Only | Print | Product List | Glossary On
Versions: 1 2 3 4 5 6 7 8 9 10 11 12
993
FTUS43 KIWX 261120
TAFFWA
TAF
KFWA 261120Z 2612/2712 28008KT P6SM SCT025 OVC060
      TEMPO 2612/2614 -SHRA BKN025 OVC060
     FM261700 27014G21KT P6SM SCT200
     FM270000 25005KT P6SM SKC=

USA.gov is the U.S. government's official web portal to all federal, state and local government web resources and services.